Time;durP1;ratioP1;P1;durP2;ratioP2;P2;SDS_P1;SDS_P2;PMS_P1;PMS_P2;Temp;Humidity;BMP_temperature;BMP_pressure;BME280_temperature;BME280_humidity;BME280_pressure;Samples;Min_cycle;Max_cycle;Signal;HPM_P1;HPM_P2
2023/11/04 00:00:33;;;;;;;6.75;5.50;;;9.10;99.90;;;;;;5030566;28;20107;-60
2023/11/04 00:03:20;;;;;;;7.68;5.20;;;9.10;99.90;;;;;;5031204;28;20424;-61
2023/11/04 00:05:47;;;;;;;6.75;6.05;;;9.20;99.90;;;;;;5025812;28;20125;-61
2023/11/04 00:08:14;;;;;;;7.53;6.00;;;9.10;99.90;;;;;;5031615;28;20127;-61
2023/11/04 00:10:41;;;;;;;5.95;5.35;;;9.20;99.90;;;;;;5024147;28;20797;-61
2023/11/04 00:13:08;;;;;;;6.28;5.55;;;9.10;99.90;;;;;;5027433;28;20046;-62
2023/11/04 00:15:35;;;;;;;5.95;5.30;;;9.20;99.90;;;;;;5030235;28;20061;-60
2023/11/04 00:18:02;;;;;;;6.10;5.03;;;9.10;99.90;;;;;;5025970;28;20482;-60
2023/11/04 00:20:29;;;;;;;5.43;4.93;;;9.20;99.90;;;;;;5026130;28;20087;-60
2023/11/04 00:23:08;;;;;;;6.07;5.20;;;9.20;99.90;;;;;;5010996;28;20068;-61
2023/11/04 00:25:36;;;;;;;6.18;5.55;;;9.20;99.90;;;;;;5029963;28;20784;-60
2023/11/04 00:28:03;;;;;;;5.78;4.65;;;9.20;99.90;;;;;;5040796;28;20054;-68
2023/11/04 00:30:30;;;;;;;5.75;5.18;;;9.20;99.90;;;;;;5029282;28;20480;-60
2023/11/04 00:32:57;;;;;;;5.25;4.75;;;9.20;99.90;;;;;;5034305;28;20041;-60
2023/11/04 00:35:25;;;;;;;4.90;4.47;;;9.20;99.90;;;;;;5054848;28;20128;-61
2023/11/04 00:37:52;;;;;;;4.70;4.25;;;9.20;99.90;;;;;;5053250;28;20131;-61
2023/11/04 00:40:19;;;;;;;4.97;4.45;;;9.20;99.90;;;;;;5055897;28;20407;-62
2023/11/04 00:42:46;;;;;;;4.68;4.30;;;9.30;99.90;;;;;;5063830;28;20398;-61
2023/11/04 00:45:13;;;;;;;4.82;4.38;;;9.20;99.90;;;;;;5056400;28;20052;-61
2023/11/04 00:47:40;;;;;;;5.07;4.57;;;9.20;99.90;;;;;;5056906;28;20044;-63
2023/11/04 00:50:08;;;;;;;5.10;4.60;;;9.20;99.90;;;;;;5053486;28;20045;-61
2023/11/04 00:52:47;;;;;;;5.68;4.53;;;9.20;99.90;;;;;;5055125;28;20045;-61
2023/11/04 00:55:14;;;;;;;6.43;5.10;;;9.20;99.90;;;;;;5052718;28;20045;-60
2023/11/04 00:57:41;;;;;;;5.53;4.97;;;9.30;99.90;;;;;;5035097;28;20539;-63
2023/11/04 01:00:09;;;;;;;6.63;5.82;;;9.30;99.90;;;;;;5058405;28;20140;-60
2023/11/04 01:02:36;;;;;;;5.88;4.65;;;9.30;99.90;;;;;;5054633;28;20059;-60
2023/11/04 01:05:03;;;;;;;5.45;4.68;;;9.30;99.90;;;;;;5056614;28;20111;-61
2023/11/04 01:07:31;;;;;;;10.38;6.15;;;9.30;99.90;;;;;;5055700;28;20036;-61
2023/11/04 01:09:58;;;;;;;5.05;4.35;;;9.30;99.90;;;;;;5066537;28;20049;-60
2023/11/04 01:12:25;;;;;;;6.80;4.47;;;9.30;99.90;;;;;;5038300;28;20037;-64
2023/11/04 01:14:52;;;;;;;4.72;4.15;;;9.30;99.90;;;;;;5061531;28;20052;-62
2023/11/04 01:17:19;;;;;;;5.10;4.70;;;9.30;99.90;;;;;;5061116;28;20482;-60
2023/11/04 01:19:46;;;;;;;5.43;4.95;;;9.30;99.90;;;;;;5054730;28;20068;-63
2023/11/04 01:22:13;;;;;;;5.03;4.53;;;9.30;99.90;;;;;;5055085;28;20044;-63
2023/11/04 01:24:42;;;;;;;5.80;5.30;;;9.40;99.90;;;;;;5039015;28;20159;-66
2023/11/04 01:27:09;;;;;;;4.68;4.28;;;9.30;99.90;;;;;;5054771;28;20049;-60
2023/11/04 01:29:37;;;;;;;5.28;4.78;;;9.40;99.90;;;;;;5053735;28;20422;-61
2023/11/04 01:32:05;;;;;;;5.70;4.60;;;9.40;99.90;;;;;;5057259;28;20493;-61
2023/11/04 01:34:33;;;;;;;4.38;3.80;;;9.40;99.90;;;;;;5049562;28;20045;-62
2023/11/04 01:37:00;;;;;;;4.75;4.18;;;9.40;99.90;;;;;;5032078;28;20058;-63
2023/11/04 01:39:27;;;;;;;4.00;3.67;;;9.40;99.90;;;;;;5038588;28;20061;-65
2023/11/04 01:41:54;;;;;;;4.93;3.85;;;9.40;99.90;;;;;;5028120;28;20077;-62
2023/11/04 01:44:21;;;;;;;3.92;3.42;;;9.40;99.90;;;;;;5018553;28;20049;-63
2023/11/04 01:46:48;;;;;;;4.40;3.85;;;9.40;99.90;;;;;;5025346;28;20053;-60
2023/11/04 01:49:15;;;;;;;5.18;3.88;;;9.40;99.90;;;;;;5017972;28;20041;-60
2023/11/04 01:51:42;;;;;;;3.25;2.90;;;9.50;99.90;;;;;;5031203;28;20036;-61
2023/11/04 01:54:10;;;;;;;3.20;2.92;;;9.50;99.90;;;;;;5023931;28;20121;-66
2023/11/04 01:56:40;;;;;;;5.10;2.85;;;9.50;99.90;;;;;;5028954;28;20099;-63
2023/11/04 01:59:10;;;;;;;2.75;2.40;;;9.50;99.90;;;;;;5012254;28;20447;-61
2023/11/04 02:01:38;;;;;;;2.67;2.28;;;9.50;99.90;;;;;;5022850;28;20384;-63
2023/11/04 02:04:06;;;;;;;3.03;2.72;;;9.50;99.90;;;;;;5028891;28;20107;-60
2023/11/04 02:06:33;;;;;;;5.10;2.88;;;9.50;99.90;;;;;;5037181;28;20431;-60
2023/11/04 02:09:00;;;;;;;3.35;2.88;;;9.60;99.90;;;;;;5034598;28;20057;-60
2023/11/04 02:11:27;;;;;;;3.50;2.35;;;9.60;99.90;;;;;;5039586;28;20048;-65
2023/11/04 02:13:55;;;;;;;3.17;2.95;;;9.60;99.90;;;;;;5024271;28;20092;-61
2023/11/04 02:16:22;;;;;;;3.35;3.05;;;9.60;99.90;;;;;;5024652;28;20045;-62
2023/11/04 02:18:49;;;;;;;3.35;3.05;;;9.60;99.90;;;;;;5014328;28;20053;-61
2023/11/04 02:21:16;;;;;;;4.13;3.42;;;9.60;99.90;;;;;;5021036;28;20049;-63
2023/11/04 02:23:43;;;;;;;5.82;3.50;;;9.60;99.90;;;;;;5033605;28;20025;-61
2023/11/04 02:26:10;;;;;;;3.40;3.10;;;9.60;99.90;;;;;;5027912;28;20656;-64
2023/11/04 02:28:37;;;;;;;5.40;4.13;;;9.60;99.90;;;;;;5034975;28;20116;-62
2023/11/04 02:31:04;;;;;;;5.80;4.35;;;9.60;99.90;;;;;;5033997;28;20431;-61
2023/11/04 02:33:31;;;;;;;7.47;5.43;;;9.70;99.90;;;;;;5030966;28;20044;-65
2023/11/04 02:35:58;;;;;;;5.22;4.72;;;9.70;99.90;;;;;;5063858;28;20060;-62
2023/11/04 02:38:25;;;;;;;6.70;5.72;;;9.70;99.90;;;;;;5056892;28;20094;-65
2023/11/04 02:40:52;;;;;;;6.47;5.45;;;9.70;99.90;;;;;;5078220;28;20386;-63
2023/11/04 02:43:19;;;;;;;7.95;5.50;;;9.70;99.90;;;;;;5071037;28;20463;-61
2023/11/04 02:45:46;;;;;;;6.43;5.78;;;9.70;99.90;;;;;;5078200;28;20052;-61
2023/11/04 02:48:13;;;;;;;8.23;7.47;;;9.70;99.90;;;;;;5072157;28;20049;-62
2023/11/04 02:50:40;;;;;;;7.90;6.78;;;9.80;99.90;;;;;;5071229;28;20049;-64
2023/11/04 02:53:07;;;;;;;7.60;6.15;;;9.80;99.90;;;;;;5054953;28;21423;-60
2023/11/04 02:55:34;;;;;;;9.23;4.75;;;9.80;99.90;;;;;;5069299;28;20044;-61
2023/11/04 02:58:01;;;;;;;7.55;6.75;;;9.80;99.90;;;;;;5071672;28;20053;-66
2023/11/04 03:00:28;;;;;;;6.32;4.82;;;9.80;99.90;;;;;;5074719;28;20055;-62
2023/11/04 03:02:55;;;;;;;6.57;5.55;;;9.80;99.90;;;;;;5050341;28;20131;-61
2023/11/04 03:05:22;;;;;;;8.40;5.88;;;9.80;99.90;;;;;;5073066;28;20411;-60
2023/11/04 03:08:00;;;;;;;6.75;5.68;;;9.90;99.90;;;;;;5076425;28;20109;-61
2023/11/04 03:10:27;;;;;;;7.82;6.75;;;9.80;99.90;;;;;;5072755;28;20048;-65
2023/11/04 03:12:54;;;;;;;7.97;5.55;;;9.80;99.90;;;;;;5060023;28;20510;-63
2023/11/04 03:15:21;;;;;;;6.03;5.07;;;9.80;99.90;;;;;;5070847;28;20063;-61
2023/11/04 03:17:48;;;;;;;6.88;4.38;;;9.90;99.90;;;;;;5073085;28;20086;-62
2023/11/04 03:20:15;;;;;;;4.45;3.95;;;9.80;99.90;;;;;;5072193;28;20045;-62
2023/11/04 03:22:42;;;;;;;9.18;5.22;;;9.90;99.90;;;;;;5071870;28;20528;-67
2023/11/04 03:25:09;;;;;;;4.20;3.80;;;9.90;99.90;;;;;;5065296;28;20036;-61
2023/11/04 03:27:36;;;;;;;3.83;3.50;;;9.90;99.90;;;;;;5068820;28;20490;-63
2023/11/04 03:30:04;;;;;;;3.28;2.97;;;9.90;99.90;;;;;;5062473;28;20092;-62
2023/11/04 03:32:31;;;;;;;4.68;4.28;;;9.90;99.90;;;;;;5067200;28;20089;-61
2023/11/04 03:34:58;;;;;;;5.25;3.80;;;9.90;99.90;;;;;;5068621;28;20075;-63
2023/11/04 03:37:25;;;;;;;3.40;3.00;;;9.90;99.90;;;;;;5071327;28;20071;-65
2023/11/04 03:39:53;;;;;;;3.22;2.92;;;9.90;99.90;;;;;;5071562;28;20553;-64
2023/11/04 03:42:20;;;;;;;3.38;3.08;;;9.90;99.90;;;;;;5068492;28;20048;-63
2023/11/04 03:44:47;;;;;;;4.78;2.85;;;9.90;99.90;;;;;;5068276;28;20067;-62
2023/11/04 03:47:15;;;;;;;3.53;3.22;;;9.80;99.90;;;;;;5074091;28;20126;-62
2023/11/04 03:49:42;;;;;;;3.15;2.85;;;9.80;99.90;;;;;;5069320;28;20049;-61
2023/11/04 03:52:09;;;;;;;2.55;2.22;;;9.80;99.90;;;;;;5075194;28;20043;-61
2023/11/04 03:54:36;;;;;;;3.40;2.40;;;9.80;99.90;;;;;;5068717;28;20063;-65
2023/11/04 03:57:03;;;;;;;2.40;2.20;;;9.80;99.90;;;;;;5077344;28;20090;-61
2023/11/04 03:59:30;;;;;;;2.70;2.50;;;9.80;99.90;;;;;;5071897;28;20127;-65
2023/11/04 04:01:57;;;;;;;2.35;2.15;;;9.80;99.90;;;;;;5066752;28;20483;-65
2023/11/04 04:04:24;;;;;;;2.50;2.30;;;9.80;99.90;;;;;;5070328;28;20048;-62
2023/11/04 04:06:52;;;;;;;1.83;1.70;;;9.90;99.90;;;;;;5068707;28;20048;-61
2023/11/04 04:09:19;;;;;;;2.60;2.40;;;9.80;99.90;;;;;;5068175;28;20378;-62
2023/11/04 04:11:46;;;;;;;2.13;1.92;;;9.80;99.90;;;;;;5073801;28;20075;-62
2023/11/04 04:14:13;;;;;;;2.65;1.92;;;9.80;99.90;;;;;;5071773;28;20536;-62
2023/11/04 04:16:40;;;;;;;1.90;1.75;;;9.80;99.90;;;;;;5068824;28;20082;-61
2023/11/04 04:19:07;;;;;;;2.55;2.25;;;9.90;99.90;;;;;;5074625;28;20052;-60
2023/11/04 04:21:37;;;;;;;3.00;1.83;;;9.90;99.90;;;;;;5067899;28;20044;-61
2023/11/04 04:24:05;;;;;;;1.58;1.45;;;9.90;99.90;;;;;;5067541;28;20040;-61
2023/11/04 04:26:32;;;;;;;2.40;1.90;;;9.90;99.90;;;;;;5068388;28;20094;-62
2023/11/04 04:28:59;;;;;;;2.63;2.33;;;9.90;99.90;;;;;;5072063;28;20052;-60
2023/11/04 04:31:27;;;;;;;3.00;1.65;;;9.90;99.90;;;;;;5069434;28;20098;-63
2023/11/04 04:33:55;;;;;;;2.10;1.60;;;9.90;99.90;;;;;;5066327;28;20498;-64
2023/11/04 04:36:22;;;;;;;1.65;1.55;;;9.90;99.90;;;;;;5080497;28;20068;-63
2023/11/04 04:38:51;;;;;;;2.03;1.80;;;9.90;99.90;;;;;;5069344;28;20080;-61
2023/11/04 04:41:18;;;;;;;1.63;1.35;;;9.90;99.90;;;;;;5068018;28;20055;-61
2023/11/04 04:43:45;;;;;;;2.75;1.83;;;9.90;99.90;;;;;;5082312;28;20124;-62
2023/11/04 04:46:12;;;;;;;3.20;1.55;;;9.90;99.90;;;;;;5069387;28;20150;-61
2023/11/04 04:48:39;;;;;;;1.85;1.70;;;9.90;99.90;;;;;;5074936;28;20071;-61
2023/11/04 04:51:07;;;;;;;1.52;1.42;;;9.90;99.90;;;;;;5066920;28;20040;-61
2023/11/04 04:53:36;;;;;;;1.33;1.23;;;9.90;99.90;;;;;;5069607;28;20048;-64
2023/11/04 04:56:03;;;;;;;1.88;1.13;;;9.90;99.90;;;;;;5067410;28;20072;-62
2023/11/04 04:58:30;;;;;;;1.70;1.40;;;9.90;99.90;;;;;;5069301;28;20040;-61
2023/11/04 05:00:57;;;;;;;2.33;1.42;;;9.90;99.90;;;;;;5068633;28;20064;-64
2023/11/04 05:03:24;;;;;;;2.53;1.75;;;9.90;99.90;;;;;;5068474;28;20040;-62
2023/11/04 05:05:51;;;;;;;1.30;1.13;;;9.90;99.90;;;;;;5066282;28;20047;-61
2023/11/04 05:08:18;;;;;;;1.80;1.30;;;9.90;99.90;;;;;;5076603;28;20048;-64
2023/11/04 05:10:45;;;;;;;1.52;1.23;;;9.90;99.90;;;;;;5072764;28;20045;-62
2023/11/04 05:13:12;;;;;;;1.17;1.08;;;9.90;99.90;;;;;;5077492;28;20486;-61
2023/11/04 05:15:39;;;;;;;1.83;1.73;;;9.90;99.90;;;;;;5072081;28;20390;-61
2023/11/04 05:18:06;;;;;;;1.48;1.15;;;10.00;99.90;;;;;;5069297;28;20033;-62
2023/11/04 05:20:33;;;;;;;1.30;1.10;;;10.00;99.90;;;;;;5076375;28;20054;-60
2023/11/04 05:22:59;;;;;;;1.70;1.60;;;10.00;99.90;;;;;;5071295;28;20044;-61
2023/11/04 05:25:27;;;;;;;2.30;1.55;;;10.00;99.90;;;;;;5074869;28;20056;-64
2023/11/04 05:27:54;;;;;;;1.75;1.65;;;10.00;99.90;;;;;;5074240;28;20152;-61
2023/11/04 05:30:21;;;;;;;2.40;1.67;;;10.00;99.90;;;;;;5076371;28;20044;-60
2023/11/04 05:32:48;;;;;;;1.33;1.23;;;10.00;99.90;;;;;;5074197;28;20119;-61
2023/11/04 05:35:16;;;;;;;1.85;1.25;;;10.00;99.90;;;;;;5073494;28;20060;-64
2023/11/04 05:37:44;;;;;;;1.17;0.95;;;10.00;99.90;;;;;;5073242;28;20040;-61
2023/11/04 05:40:11;;;;;;;1.42;1.33;;;10.00;99.90;;;;;;5071815;28;20446;-61
2023/11/04 05:42:38;;;;;;;1.83;1.73;;;10.00;99.90;;;;;;5072523;28;20071;-62
2023/11/04 05:45:06;;;;;;;1.40;1.10;;;10.00;99.90;;;;;;5071917;28;20599;-62
2023/11/04 05:47:33;;;;;;;1.50;1.40;;;10.00;99.90;;;;;;5069802;28;20087;-61
2023/11/04 05:50:01;;;;;;;2.25;1.55;;;10.00;99.90;;;;;;5073172;28;20418;-62
2023/11/04 05:52:28;;;;;;;1.50;1.35;;;10.00;99.90;;;;;;5067452;28;20045;-64
2023/11/04 05:54:55;;;;;;;1.58;1.48;;;10.00;99.90;;;;;;5072548;28;20114;-62
2023/11/04 05:57:22;;;;;;;1.40;1.30;;;10.00;99.90;;;;;;5074996;28;20049;-63
2023/11/04 05:59:49;;;;;;;1.30;1.20;;;10.00;99.90;;;;;;5068828;28;20900;-61
2023/11/04 06:02:16;;;;;;;2.08;1.98;;;10.00;99.90;;;;;;5073615;28;20044;-61
2023/11/04 06:04:43;;;;;;;1.63;1.42;;;10.00;99.90;;;;;;5073429;28;20605;-60
2023/11/04 06:07:10;;;;;;;2.45;2.22;;;10.00;99.90;;;;;;5079563;28;20126;-64
2023/11/04 06:09:37;;;;;;;1.90;1.73;;;10.10;99.90;;;;;;5078217;28;20044;-61
2023/11/04 06:12:04;;;;;;;3.10;1.60;;;10.10;99.90;;;;;;5071580;28;20056;-62
2023/11/04 06:14:31;;;;;;;2.13;2.03;;;10.10;99.90;;;;;;5070375;28;20071;-62
2023/11/04 06:16:58;;;;;;;2.80;2.22;;;10.10;99.90;;;;;;5071145;28;20462;-63
2023/11/04 06:19:25;;;;;;;4.72;2.95;;;10.10;99.90;;;;;;5069987;28;20056;-62
2023/11/04 06:21:53;;;;;;;2.72;2.45;;;10.10;99.90;;;;;;5070257;28;20047;-63
2023/11/04 06:24:19;;;;;;;3.15;2.85;;;10.20;99.90;;;;;;5076275;28;20818;-60
2023/11/04 06:26:46;;;;;;;2.88;2.58;;;10.20;99.90;;;;;;5068973;28;20076;-62
2023/11/04 06:29:13;;;;;;;4.47;3.67;;;10.20;99.90;;;;;;5075013;28;20048;-65
2023/11/04 06:31:40;;;;;;;3.28;2.83;;;10.20;99.90;;;;;;5072558;28;20058;-60
2023/11/04 06:34:07;;;;;;;3.42;2.97;;;10.20;99.90;;;;;;5069014;28;20114;-61
2023/11/04 06:36:34;;;;;;;3.05;2.72;;;10.20;99.90;;;;;;5075424;28;20044;-61
2023/11/04 06:39:02;;;;;;;3.63;3.22;;;10.20;99.90;;;;;;5077055;28;20101;-62
2023/11/04 06:41:29;;;;;;;3.97;3.22;;;10.30;99.90;;;;;;5073818;28;20533;-62
2023/11/04 06:43:57;;;;;;;3.95;3.10;;;10.30;99.90;;;;;;5072542;28;20423;-62
2023/11/04 06:46:24;;;;;;;3.88;3.42;;;10.30;99.90;;;;;;5078679;28;20062;-66
2023/11/04 06:48:51;;;;;;;4.95;3.45;;;10.40;99.90;;;;;;5074171;28;20036;-67
2023/11/04 06:51:19;;;;;;;4.53;4.00;;;10.40;99.90;;;;;;5068941;28;20456;-61
2023/11/04 06:53:46;;;;;;;4.63;3.42;;;10.40;99.90;;;;;;5075499;28;20094;-60
2023/11/04 06:56:13;;;;;;;5.28;4.47;;;10.40;99.90;;;;;;5071667;28;20102;-60
2023/11/04 06:58:42;;;;;;;5.40;4.90;;;10.50;99.90;;;;;;5076494;28;20072;-61
2023/11/04 07:01:15;;;;;;;4.85;4.35;;;10.50;99.90;;;;;;5071386;28;20041;-61
2023/11/04 07:03:45;;;;;;;8.13;5.07;;;10.40;99.90;;;;;;5071618;28;20490;-60
2023/11/04 07:06:13;;;;;;;4.50;3.53;;;10.40;99.90;;;;;;5074392;28;20134;-60
2023/11/04 07:08:42;;;;;;;5.32;3.72;;;10.40;99.90;;;;;;5069895;28;20044;-61
2023/11/04 07:11:13;;;;;;;6.80;4.78;;;10.40;99.90;;;;;;5070603;28;20048;-62
2023/11/04 07:13:41;;;;;;;7.00;5.35;;;10.40;99.90;;;;;;5072497;28;20414;-63
2023/11/04 07:16:12;;;;;;;5.45;4.60;;;10.30;99.90;;;;;;5073647;28;20040;-62
2023/11/04 07:18:40;;;;;;;5.20;4.53;;;10.30;99.90;;;;;;5072573;28;20036;-61
2023/11/04 07:21:08;;;;;;;7.30;4.70;;;10.30;99.90;;;;;;5074556;28;20106;-61
2023/11/04 07:23:35;;;;;;;10.00;5.43;;;10.30;99.90;;;;;;5067614;28;20044;-62
2023/11/04 07:26:02;;;;;;;6.47;4.90;;;10.30;99.90;;;;;;5069536;28;20141;-61
2023/11/04 07:28:35;;;;;;;6.55;4.65;;;10.30;99.90;;;;;;5069586;28;20064;-64
2023/11/04 07:31:04;;;;;;;7.72;4.57;;;10.30;99.90;;;;;;5073938;28;20037;-61
2023/11/04 07:33:31;;;;;;;6.07;4.53;;;10.30;99.90;;;;;;5076881;28;20045;-62
2023/11/04 07:35:58;;;;;;;6.53;3.50;;;10.20;99.90;;;;;;5069054;28;20068;-60
2023/11/04 07:38:26;;;;;;;6.80;4.20;;;10.20;99.90;;;;;;5073072;28;20110;-65
2023/11/04 07:40:53;;;;;;;5.97;3.28;;;10.20;99.90;;;;;;5072960;28;20326;-61
2023/11/04 07:43:20;;;;;;;6.15;4.25;;;10.20;99.90;;;;;;5076348;28;20392;-61
2023/11/04 07:45:47;;;;;;;6.20;3.95;;;10.20;99.90;;;;;;5071888;28;20090;-66
2023/11/04 07:48:14;;;;;;;7.63;3.90;;;10.20;99.90;;;;;;5072999;28;20044;-61
2023/11/04 07:50:41;;;;;;;13.98;3.83;;;10.20;99.90;;;;;;5068872;28;20079;-63
2023/11/04 07:53:08;;;;;;;4.35;3.65;;;10.30;99.90;;;;;;5068427;28;20124;-61
2023/11/04 07:55:35;;;;;;;5.72;3.60;;;10.30;99.90;;;;;;5070535;28;20123;-60
2023/11/04 07:58:03;;;;;;;7.22;3.30;;;10.30;99.90;;;;;;5077878;28;20390;-62
2023/11/04 08:00:30;;;;;;;8.50;3.38;;;10.30;99.90;;;;;;5072304;28;20044;-64
2023/11/04 08:02:57;;;;;;;4.30;3.08;;;10.20;99.90;;;;;;5068826;28;20044;-61
2023/11/04 08:05:28;;;;;;;4.60;3.45;;;10.20;99.90;;;;;;5074854;28;20041;-62
2023/11/04 08:07:56;;;;;;;6.60;3.53;;;10.30;99.90;;;;;;5066908;28;20110;-64
2023/11/04 08:10:23;;;;;;;7.35;3.63;;;10.30;99.90;;;;;;5073818;28;20043;-61
2023/11/04 08:12:50;;;;;;;5.82;3.70;;;10.30;99.90;;;;;;5071289;28;20043;-63
2023/11/04 08:15:17;;;;;;;7.07;4.53;;;10.30;99.90;;;;;;5067162;28;20079;-63
2023/11/04 08:17:44;;;;;;;6.53;4.10;;;10.30;99.90;;;;;;5064162;28;20047;-62
2023/11/04 08:20:11;;;;;;;5.78;4.22;;;10.30;99.90;;;;;;5068863;28;20574;-61
2023/11/04 08:22:39;;;;;;;6.10;4.13;;;10.30;99.90;;;;;;5076979;28;20051;-63
2023/11/04 08:25:09;;;;;;;6.82;4.05;;;10.30;99.90;;;;;;5068337;28;20122;-60
2023/11/04 08:27:36;;;;;;;;;;;10.30;99.90;;;;;;5070187;28;20056;-60
2023/11/04 08:30:04;;;;;;;5.80;4.38;;;10.30;99.90;;;;;;5075254;28;19920;-61
2023/11/04 08:32:31;;;;;;;7.57;3.58;;;10.30;99.90;;;;;;5072876;28;20040;-63
2023/11/04 08:34:59;;;;;;;5.15;4.65;;;10.30;99.90;;;;;;5066464;28;20110;-60
2023/11/04 08:37:26;;;;;;;7.35;4.53;;;10.30;99.90;;;;;;5070445;28;20127;-63
2023/11/04 08:39:54;;;;;;;7.20;4.57;;;10.30;99.90;;;;;;5073047;28;20368;-61
2023/11/04 08:42:25;;;;;;;6.88;3.67;;;10.30;99.90;;;;;;5068950;28;20076;-61
2023/11/04 08:44:53;;;;;;;6.75;5.47;;;10.30;99.90;;;;;;5073564;28;20123;-63
2023/11/04 08:47:20;;;;;;;9.27;4.78;;;10.30;99.90;;;;;;5071973;28;20036;-60
2023/11/04 08:49:47;;;;;;;7.57;4.13;;;10.30;99.90;;;;;;5082405;28;20040;-62
2023/11/04 08:52:15;;;;;;;6.55;4.18;;;10.30;99.90;;;;;;5076705;28;20127;-60
2023/11/04 08:54:42;;;;;;;5.55;5.00;;;10.30;99.90;;;;;;5074669;28;20060;-62
2023/11/04 08:57:09;;;;;;;7.90;4.35;;;10.30;99.90;;;;;;5072101;28;20048;-61
2023/11/04 08:59:36;;;;;;;8.85;3.67;;;10.30;99.90;;;;;;5073142;28;20045;-61
2023/11/04 09:02:03;;;;;;;3.97;3.08;;;10.30;99.90;;;;;;5074274;28;20130;-60
2023/11/04 09:04:30;;;;;;;3.10;2.80;;;10.30;99.90;;;;;;5075646;28;20056;-61
2023/11/04 09:06:57;;;;;;;5.43;2.78;;;10.30;99.90;;;;;;5076693;28;20068;-63
2023/11/04 09:09:25;;;;;;;4.22;3.83;;;10.30;99.90;;;;;;5079725;28;20090;-64
2023/11/04 09:11:55;;;;;;;4.68;2.50;;;10.30;99.90;;;;;;5076442;28;20388;-61
2023/11/04 09:14:23;;;;;;;3.35;2.83;;;10.30;99.90;;;;;;5072263;28;20040;-62
2023/11/04 09:16:50;;;;;;;2.70;1.92;;;10.30;99.90;;;;;;5071072;28;20490;-64
2023/11/04 09:19:17;;;;;;;2.28;1.83;;;10.30;99.90;;;;;;5073423;28;20125;-61
2023/11/04 09:21:44;;;;;;;2.00;1.80;;;10.40;99.90;;;;;;5074335;28;20393;-61
2023/11/04 09:24:11;;;;;;;2.95;1.60;;;10.40;99.90;;;;;;5077374;28;20049;-62
2023/11/04 09:26:38;;;;;;;3.50;2.70;;;10.40;99.90;;;;;;5070286;28;20402;-60
2023/11/04 09:29:05;;;;;;;3.50;1.60;;;10.40;99.90;;;;;;5072603;28;20108;-61
2023/11/04 09:31:32;;;;;;;2.65;2.45;;;10.40;99.90;;;;;;5074829;28;20040;-62
2023/11/04 09:34:00;;;;;;;3.00;2.40;;;10.40;99.90;;;;;;5071626;28;20071;-62
2023/11/04 09:36:27;;;;;;;1.85;1.50;;;10.40;99.90;;;;;;5082484;28;20502;-66
2023/11/04 09:38:54;;;;;;;2.10;1.42;;;10.30;99.90;;;;;;5072488;28;20036;-61
2023/11/04 09:41:22;;;;;;;2.92;1.40;;;10.30;99.90;;;;;;5072045;28;20076;-62
2023/11/04 09:43:49;;;;;;;2.88;1.90;;;10.30;99.90;;;;;;5069173;28;20131;-61
2023/11/04 09:46:16;;;;;;;3.15;1.67;;;10.30;99.90;;;;;;5077662;28;20523;-60
2023/11/04 09:48:43;;;;;;;6.63;2.33;;;10.20;99.90;;;;;;5073915;28;20040;-60
2023/11/04 09:51:15;;;;;;;8.57;2.78;;;10.20;99.90;;;;;;5075462;28;20048;-64
2023/11/04 09:53:55;;;;;;;4.47;1.98;;;10.20;99.90;;;;;;5074988;28;20071;-63
2023/11/04 09:56:24;;;;;;;2.15;1.60;;;10.20;99.90;;;;;;5070793;28;20094;-61
2023/11/04 09:58:51;;;;;;;1.35;1.25;;;10.10;99.90;;;;;;5052983;28;20048;-63
2023/11/04 10:01:18;;;;;;;1.60;1.17;;;10.10;99.90;;;;;;5070122;28;20479;-60
2023/11/04 10:03:47;;;;;;;1.55;1.20;;;10.10;99.90;;;;;;5069071;28;20122;-61
2023/11/04 10:06:15;;;;;;;2.22;1.20;;;10.10;99.90;;;;;;5072813;28;20382;-66
2023/11/04 10:08:43;;;;;;;1.35;1.25;;;10.10;99.90;;;;;;5070630;28;20128;-62
2023/11/04 10:11:10;;;;;;;2.17;1.55;;;10.10;99.90;;;;;;5074801;28;20040;-62
2023/11/04 10:13:37;;;;;;;1.98;1.30;;;10.10;99.90;;;;;;5068142;28;20545;-62
2023/11/04 10:16:04;;;;;;;1.77;1.35;;;10.00;99.90;;;;;;5075961;28;20036;-60
2023/11/04 10:18:34;;;;;;;2.10;1.92;;;10.00;99.90;;;;;;5051430;28;20063;-63
2023/11/04 10:21:02;;;;;;;1.13;1.02;;;10.10;99.90;;;;;;5070125;28;20111;-62
2023/11/04 10:23:30;;;;;;;1.30;1.20;;;10.10;99.90;;;;;;5069243;28;20497;-63
2023/11/04 10:26:03;;;;;;;1.45;1.35;;;10.00;99.90;;;;;;5079771;28;20042;-61
2023/11/04 10:28:32;;;;;;;0.57;0.47;;;10.00;99.90;;;;;;5071321;28;20123;-60
2023/11/04 10:31:04;;;;;;;0.90;0.60;;;9.80;99.90;;;;;;5077048;28;20037;-62
2023/11/04 10:33:39;;;;;;;5.63;0.40;;;9.50;99.90;;;;;;5077590;28;20127;-61
2023/11/04 10:36:11;;;;;;;2.38;1.77;;;9.30;99.90;;;;;;5073852;28;20570;-61
2023/11/04 10:38:43;;;;;;;0.32;0.25;;;9.20;99.90;;;;;;5074476;28;20048;-60
2023/11/04 10:41:13;;;;;;;1.67;0.60;;;9.00;99.90;;;;;;5069470;28;20569;-60
2023/11/04 10:43:51;;;;;;;2.88;0.82;;;8.90;99.90;;;;;;5069143;28;20394;-60
2023/11/04 10:46:28;;;;;;;3.17;0.68;;;8.90;99.90;;;;;;5072229;28;20559;-62
2023/11/04 10:49:04;;;;;;;1.10;0.50;;;8.80;99.90;;;;;;5065971;28;20089;-62
2023/11/04 10:51:44;;;;;;;3.60;0.63;;;8.80;99.90;;;;;;5071938;28;20046;-61
2023/11/04 10:54:35;;;;;;;3.17;1.65;;;8.70;99.90;;;;;;5072861;28;20467;-60
2023/11/04 10:57:16;;;;;;;1.58;0.57;;;8.70;99.90;;;;;;5070401;28;20067;-62
2023/11/04 10:59:57;;;;;;;2.80;0.88;;;8.70;99.90;;;;;;5065973;28;20040;-60
2023/11/04 11:02:25;;;;;;;3.28;1.05;;;8.60;99.90;;;;;;5068085;28;20489;-61
2023/11/04 11:04:53;;;;;;;6.38;0.95;;;8.60;99.90;;;;;;5078707;28;20071;-61
2023/11/04 11:07:20;;;;;;;2.33;1.23;;;8.60;99.90;;;;;;5073554;28;20044;-61
2023/11/04 11:09:48;;;;;;;0.75;0.63;;;8.60;99.90;;;;;;5069848;28;20513;-61
2023/11/04 11:12:25;;;;;;;6.78;2.17;;;8.60;99.90;;;;;;5046873;28;20452;-62
2023/11/04 11:14:53;;;;;;;2.80;1.10;;;8.60;99.90;;;;;;5068511;28;20033;-61
2023/11/04 11:17:30;;;;;;;7.05;1.33;;;8.60;99.90;;;;;;5070129;28;20036;-60
2023/11/04 11:19:58;;;;;;;4.63;2.00;;;8.60;99.90;;;;;;5070619;28;20421;-60
2023/11/04 11:22:26;;;;;;;6.30;3.67;;;8.60;99.90;;;;;;5072005;28;20119;-64
2023/11/04 11:24:57;;;;;;;7.28;3.35;;;8.60;99.90;;;;;;5076671;28;20044;-62
2023/11/04 11:27:25;;;;;;;5.72;3.25;;;8.60;99.90;;;;;;5073856;28;20075;-65
2023/11/04 11:29:53;;;;;;;12.13;4.68;;;8.60;99.90;;;;;;5068398;28;20059;-62
2023/11/04 11:32:20;;;;;;;10.00;3.65;;;8.60;99.90;;;;;;5072219;28;20136;-60
2023/11/04 11:34:56;;;;;;;5.55;2.28;;;8.50;99.90;;;;;;5071138;28;20053;-62
2023/11/04 11:37:24;;;;;;;10.25;5.30;;;8.50;99.90;;;;;;5072075;28;20070;-61
2023/11/04 11:39:52;;;;;;;6.63;3.45;;;8.50;99.90;;;;;;5070950;28;20037;-60
2023/11/04 11:42:26;;;;;;;4.47;3.95;;;8.50;99.90;;;;;;5071979;28;20513;-64
2023/11/04 11:44:55;;;;;;;9.43;4.05;;;8.50;99.90;;;;;;5074561;28;20033;-63
2023/11/04 11:47:22;;;;;;;5.57;2.85;;;8.50;99.90;;;;;;5073843;28;20538;-60
2023/11/04 11:49:49;;;;;;;7.35;3.45;;;8.50;99.90;;;;;;5070967;28;20047;-60
2023/11/04 11:52:16;;;;;;;8.10;3.00;;;8.50;99.90;;;;;;5079309;28;20067;-60
2023/11/04 11:54:44;;;;;;;6.97;3.60;;;8.50;99.90;;;;;;5067256;28;20040;-61
2023/11/04 11:57:11;;;;;;;6.68;3.40;;;8.50;99.90;;;;;;5073258;28;20051;-60
2023/11/04 11:59:39;;;;;;;8.43;5.43;;;8.50;99.90;;;;;;5053357;28;20044;-60
2023/11/04 12:02:07;;;;;;;6.13;3.35;;;8.50;99.90;;;;;;5067246;28;20052;-61
2023/11/04 12:04:35;;;;;;;8.10;2.83;;;8.50;99.90;;;;;;5067205;28;20051;-63
2023/11/04 12:07:02;;;;;;;7.78;3.30;;;8.50;99.90;;;;;;5070726;28;20452;-60
2023/11/04 12:09:30;;;;;;;6.82;3.30;;;8.50;99.90;;;;;;5073398;28;20040;-60
2023/11/04 12:11:57;;;;;;;14.80;3.72;;;8.50;99.90;;;;;;5073205;28;20036;-60
2023/11/04 12:14:24;;;;;;;9.13;4.03;;;8.50;99.90;;;;;;5074026;28;20095;-61
2023/11/04 12:16:53;;;;;;;5.93;2.92;;;8.50;99.90;;;;;;5075913;28;20060;-61
2023/11/04 12:19:21;;;;;;;3.55;2.83;;;8.50;99.90;;;;;;5072516;28;20041;-60
2023/11/04 12:21:48;;;;;;;6.78;3.72;;;8.50;99.90;;;;;;5068901;28;20041;-61
2023/11/04 12:24:15;;;;;;;12.55;3.08;;;8.50;99.90;;;;;;5068641;28;20052;-62
2023/11/04 12:26:44;;;;;;;5.95;3.15;;;8.50;99.90;;;;;;5071738;28;20498;-60
2023/11/04 12:29:11;;;;;;;6.97;2.42;;;8.50;99.90;;;;;;5072645;28;20405;-60
2023/11/04 12:31:40;;;;;;;3.20;2.28;;;8.50;99.90;;;;;;5071293;28;20040;-60
2023/11/04 12:34:08;;;;;;;4.00;1.92;;;8.50;99.90;;;;;;5066206;28;20049;-61
2023/11/04 12:36:35;;;;;;;4.57;2.17;;;8.50;99.90;;;;;;5069393;28;20052;-61
2023/11/04 12:39:03;;;;;;;4.65;2.45;;;8.50;99.90;;;;;;5068389;28;20098;-62
2023/11/04 12:41:30;;;;;;;7.78;2.30;;;8.50;99.90;;;;;;5070376;28;20124;-61
2023/11/04 12:44:01;;;;;;;9.88;3.08;;;8.50;99.90;;;;;;5069090;28;20056;-63
2023/11/04 12:46:29;;;;;;;9.27;5.10;;;8.60;99.90;;;;;;5071782;28;20071;-65
2023/11/04 12:48:57;;;;;;;4.80;3.13;;;8.60;99.90;;;;;;5067724;28;20040;-60
2023/11/04 12:51:25;;;;;;;4.88;3.53;;;8.60;99.90;;;;;;5070368;28;20045;-65
2023/11/04 12:53:52;;;;;;;9.73;3.03;;;8.60;99.90;;;;;;5068388;28;20098;-63
2023/11/04 12:56:19;;;;;;;20.85;7.15;;;8.60;99.90;;;;;;5069111;28;20048;-61